This is the latest recevied weather packets stored in our database for station/object N7TUG-8. If no packets are shown the sender has not sent any weather packets the latest 10 day(s).
| Time | Temp. | Humidity | Pressure | Rain* | Wind** | Luminosity | Snow |
|---|---|---|---|---|---|---|---|
| 1777850142 | 24.44° C | 54% | 1009.9 hPa | 0 mm | 1.34 m/s, 334° | - | - |
| 1777850011 | 24.44° C | 53% | 1010.1 hPa | 0 mm | 2.24 m/s, 316° | - | - |
| 1777849412 | 24.44° C | 54% | 1010.2 hPa | 0 mm | 1.79 m/s, 328° | - | - |
| 1777849146 | 24.44° C | 54% | 1010.2 hPa | 0 mm | 2.24 m/s, 323° | - | - |
| 1777848241 | 23.33° C | 54% | 1010.6 hPa | 0 mm | 2.68 m/s, 333° | - | - |
| 1777847787 | 23.33° C | 54% | 1010.7 hPa | 0 mm | 2.68 m/s, 316° | - | - |
| 1777847426 | 23.33° C | 55% | 1010.8 hPa | 0 mm | 3.13 m/s, 328° | - | - |
| 1777846651 | 23.33° C | 55% | 1010.9 hPa | 0 mm | 3.58 m/s, 331° | - | - |
| 1777845706 | 23.33° C | 54% | 1011.1 hPa | 0 mm | 3.58 m/s, 340° | - | - |
| 1777844762 | 22.78° C | 59% | 1011.2 hPa | 0 mm | 3.58 m/s, 315° | - | - |
| 1777844592 | 22.78° C | 59% | 1011.2 hPa | 0 mm | 3.58 m/s, 325° | - | - |
| 1777843852 | 22.22° C | 60% | 1011.3 hPa | 0 mm | 3.58 m/s, 316° | - | - |
| 1777843762 | 21.67° C | 61% | 1011.3 hPa | 0 mm | 3.58 m/s, 327° | - | - |
| 1777843066 | 22.22° C | 59% | 1011.4 hPa | 0 mm | 4.02 m/s, 315° | - | - |
| 1777842987 | 22.22° C | 59% | 1011.4 hPa | 0 mm | 4.02 m/s, 315° | - | - |
| 1777842251 | 22.78° C | 56% | 1011.4 hPa | 0 mm | 2.68 m/s, 336° | - | - |
| 1777841486 | 22.22° C | 57% | 1011.6 hPa | 0 mm | 3.58 m/s, 334° | - | - |
| 1777840546 | 22.22° C | 57% | 1011.8 hPa | 0 mm | 3.58 m/s, 332° | - | - |
| 1777840512 | 22.22° C | 58% | 1011.8 hPa | 0 mm | 3.58 m/s, 329° | - | - |
| 1777839727 | 21.67° C | 58% | 1012 hPa | 0 mm | 3.58 m/s, 332° | - | - |
| 1777839591 | 21.67° C | 58% | 1012 hPa | 0 mm | 3.58 m/s, 338° | - | - |
| 1777839002 | 22.22° C | 57% | 1012.1 hPa | 0 mm | 3.13 m/s, 320° | - | - |
| 1777838661 | 22.22° C | 59% | 1012.3 hPa | 0 mm | 3.13 m/s, 336° | - | - |
| 1777837746 | 22.22° C | 59% | 1012.4 hPa | 0 mm | 2.68 m/s, 331° | - | - |
| 1777837357 | 22.22° C | 60% | 1012.5 hPa | 0 mm | 3.13 m/s, 314° | - | - |
* Rain latest hour (hover to see other rain measurements)
** Current wind speed in m/s (hover to see current wind gust speed)